Impacts METAR Board
IDs:

KMDW - Chicago/Midway Intl, IL, US

Updated at: 1700 UTC 03 Dec 2021
Potential Impact None Slight Moderate High
Time 03/05Z 03/06Z 03/07Z 03/08Z 03/09Z 03/10Z 03/11Z 03/12Z 03/13Z 03/14Z 03/15Z 03/16Z 03/17Z
Temp46 47 46 46 45 45 44 44 44 45 46 48 48
Dewpt32 36 36 35 34 33 33 32 31 31 30 28 30
Altim30.05 30.02 30.03 30.05 30.05 30.04 30.02 30.04 30.04 30.05 30.06 30.05 30.03
VIS10 10 10 10 10 10 10 10 10 10 10 10 10
CIG80 95 90 90 80 80 100 70 90 120 160 130 150
CoverOVCOVCOVCOVCOVCOVCOVCOVCBKNBKNBKNBKNBKN
FltCatVFRVFRVFRVFRVFRVFRVFRVFRVFRVFRVFRVFRVFR
WX--------------------------
WDir09014022018014012014010010012011080
WSpd0 4 4 4 4 3 4 4 5 6 5 10 8
WGst-- -- -- -- -- -- -- -- -- -- -- -- --
Raw hourly METARs
KMDW 030453Z 00000KT 10SM BKN080 OVC100 08/00 A3005 RMK AO2 SLP175 T00780000
KMDW 030553Z 09004KT 10SM SCT070 OVC095 08/02 A3002 RMK AO2 SLP168 T00830022 10089 20067 401500067 50006
KMDW 030653Z 14004KT 10SM OVC090 08/02 A3003 RMK AO2 SLP171 T00780022
KMDW 030753Z 22004KT 10SM OVC090 08/02 A3005 RMK AO2 SLP178 T00780017
KMDW 030853Z 18004KT 10SM OVC080 07/01 A3005 RMK AO2 SLP178 T00720011 51009
KMDW 030953Z 14003KT 10SM BKN080 OVC110 07/01 A3004 RMK AO2 SLP176 T00720006
KMDW 031053Z 12004KT 10SM OVC100 07/01 A3002 RMK AO2 SLP171 T00670006
KMDW 031153Z 14004KT 10SM BKN070 OVC095 07/00 A3004 RMK AO2 SLP176 T00670000 10083 20067 55004
KMDW 031253Z 10005KT 10SM FEW070 BKN090 BKN160 07/M01 A3004 RMK AO2 SLP177 T00671006
KMDW 031353Z 10006KT 10SM FEW010 SCT090 BKN120 BKN160 07/M01 A3005 RMK AO2 SLP180 T00721006
KMDW 031453Z 12005KT 10SM SCT120 BKN160 08/M01 A3006 RMK AO2 SLP183 T00781011 53006
KMDW 031553Z 11010KT 10SM SCT070 BKN130 09/M02 A3005 RMK AO2 SLP181 T00891022
KMDW 031653Z 08008KT 10SM FEW070 BKN150 09/M01 A3003 RMK AO2 SLP174 T00891011



Page loaded:  17:15 UTC  |   09:15 AM Pacific  |   10:15 AM Mountain  |   11:15 AM Central  |   12:15 PM Eastern

 

ADVISORIES

FORECASTS

FORECASTS

OBSERVATIONS

USER TOOLS

ABOUT US